sensor_id;sensor_type;location;lat;lon;timestamp;P1;durP1;ratioP1;P2;durP2;ratioP2
37593;SDS011;23441;50.856;6.076;2023-02-22T00:00:16;350.75;;;36.75;;
37593;SDS011;23441;50.856;6.076;2023-02-22T00:02:46;335.63;;;33.25;;
37593;SDS011;23441;50.856;6.076;2023-02-22T00:05:13;379.60;;;38.00;;
37593;SDS011;23441;50.856;6.076;2023-02-22T00:07:44;152.25;;;26.25;;
37593;SDS011;23441;50.856;6.076;2023-02-22T00:10:14;170.50;;;28.35;;
37593;SDS011;23441;50.856;6.076;2023-02-22T00:12:45;196.60;;;27.25;;
37593;SDS011;23441;50.856;6.076;2023-02-22T00:15:15;176.38;;;26.67;;
37593;SDS011;23441;50.856;6.076;2023-02-22T00:17:43;108.38;;;22.65;;
37593;SDS011;23441;50.856;6.076;2023-02-22T00:20:09;143.77;;;23.20;;
37593;SDS011;23441;50.856;6.076;2023-02-22T00:22:42;143.18;;;24.17;;
37593;SDS011;23441;50.856;6.076;2023-02-22T00:25:11;142.50;;;21.90;;
37593;SDS011;23441;50.856;6.076;2023-02-22T00:27:43;154.40;;;24.13;;
37593;SDS011;23441;50.856;6.076;2023-02-22T00:30:15;130.20;;;22.05;;
37593;SDS011;23441;50.856;6.076;2023-02-22T00:32:46;182.95;;;25.20;;
37593;SDS011;23441;50.856;6.076;2023-02-22T00:35:14;108.97;;;21.58;;
37593;SDS011;23441;50.856;6.076;2023-02-22T00:37:41;116.75;;;21.67;;
37593;SDS011;23441;50.856;6.076;2023-02-22T00:40:10;144.45;;;23.50;;
37593;SDS011;23441;50.856;6.076;2023-02-22T00:42:39;227.63;;;24.67;;
37593;SDS011;23441;50.856;6.076;2023-02-22T00:45:05;84.05;;;20.35;;
37593;SDS011;23441;50.856;6.076;2023-02-22T00:47:31;156.65;;;23.58;;
37593;SDS011;23441;50.856;6.076;2023-02-22T00:49:56;78.82;;;19.83;;
37593;SDS011;23441;50.856;6.076;2023-02-22T00:52:22;157.82;;;23.77;;
37593;SDS011;23441;50.856;6.076;2023-02-22T00:54:48;140.18;;;24.30;;
37593;SDS011;23441;50.856;6.076;2023-02-22T00:57:14;125.57;;;20.67;;
37593;SDS011;23441;50.856;6.076;2023-02-22T00:59:39;228.82;;;23.92;;
37593;SDS011;23441;50.856;6.076;2023-02-22T01:02:05;134.35;;;20.90;;
37593;SDS011;23441;50.856;6.076;2023-02-22T01:04:31;307.73;;;27.95;;
37593;SDS011;23441;50.856;6.076;2023-02-22T01:06:56;385.02;;;29.60;;
37593;SDS011;23441;50.856;6.076;2023-02-22T01:09:24;356.20;;;31.52;;
37593;SDS011;23441;50.856;6.076;2023-02-22T01:11:54;155.68;;;20.80;;
37593;SDS011;23441;50.856;6.076;2023-02-22T01:14:21;214.02;;;23.40;;
37593;SDS011;23441;50.856;6.076;2023-02-22T01:16:48;257.10;;;23.55;;
37593;SDS011;23441;50.856;6.076;2023-02-22T01:19:15;293.50;;;24.17;;
37593;SDS011;23441;50.856;6.076;2023-02-22T01:21:41;236.85;;;23.48;;
37593;SDS011;23441;50.856;6.076;2023-02-22T01:24:07;325.83;;;25.20;;
37593;SDS011;23441;50.856;6.076;2023-02-22T01:26:33;376.90;;;29.70;;
37593;SDS011;23441;50.856;6.076;2023-02-22T01:28:58;350.88;;;26.80;;
37593;SDS011;23441;50.856;6.076;2023-02-22T01:31:24;418.27;;;29.83;;
37593;SDS011;23441;50.856;6.076;2023-02-22T01:33:50;185.57;;;20.05;;
37593;SDS011;23441;50.856;6.076;2023-02-22T01:36:16;356.90;;;28.65;;
37593;SDS011;23441;50.856;6.076;2023-02-22T01:38:43;301.98;;;22.45;;
37593;SDS011;23441;50.856;6.076;2023-02-22T01:41:09;293.73;;;23.95;;
37593;SDS011;23441;50.856;6.076;2023-02-22T01:43:35;402.98;;;27.33;;
37593;SDS011;23441;50.856;6.076;2023-02-22T01:46:05;258.83;;;25.05;;
37593;SDS011;23441;50.856;6.076;2023-02-22T01:48:46;260.33;;;22.42;;
37593;SDS011;23441;50.856;6.076;2023-02-22T01:51:25;307.92;;;22.98;;
37593;SDS011;23441;50.856;6.076;2023-02-22T01:53:58;219.85;;;19.90;;
37593;SDS011;23441;50.856;6.076;2023-02-22T01:56:30;272.50;;;23.27;;
37593;SDS011;23441;50.856;6.076;2023-02-22T01:59:04;333.73;;;24.63;;
37593;SDS011;23441;50.856;6.076;2023-02-22T02:01:32;184.00;;;17.60;;
37593;SDS011;23441;50.856;6.076;2023-02-22T02:04:00;202.98;;;21.10;;
37593;SDS011;23441;50.856;6.076;2023-02-22T02:06:32;285.15;;;25.08;;
37593;SDS011;23441;50.856;6.076;2023-02-22T02:09:10;213.77;;;18.15;;
37593;SDS011;23441;50.856;6.076;2023-02-22T02:11:38;234.90;;;18.60;;
37593;SDS011;23441;50.856;6.076;2023-02-22T02:14:06;326.23;;;24.98;;
37593;SDS011;23441;50.856;6.076;2023-02-22T02:16:37;193.82;;;18.88;;
37593;SDS011;23441;50.856;6.076;2023-02-22T02:19:34;305.17;;;21.33;;
37593;SDS011;23441;50.856;6.076;2023-02-22T02:33:31;187.80;;;18.17;;
37593;SDS011;23441;50.856;6.076;2023-02-22T02:36:06;150.57;;;21.08;;
37593;SDS011;23441;50.856;6.076;2023-02-22T02:39:09;114.40;;;15.68;;
37593;SDS011;23441;50.856;6.076;2023-02-22T02:41:50;149.88;;;16.67;;
37593;SDS011;23441;50.856;6.076;2023-02-22T02:44:19;145.57;;;15.95;;
37593;SDS011;23441;50.856;6.076;2023-02-22T02:49:47;183.32;;;16.73;;
37593;SDS011;23441;50.856;6.076;2023-02-22T02:52:13;167.27;;;15.70;;
37593;SDS011;23441;50.856;6.076;2023-02-22T02:54:43;175.20;;;18.67;;
37593;SDS011;23441;50.856;6.076;2023-02-22T02:57:10;157.00;;;17.55;;
37593;SDS011;23441;50.856;6.076;2023-02-22T02:59:37;171.05;;;17.77;;
37593;SDS011;23441;50.856;6.076;2023-02-22T03:10:12;131.55;;;14.90;;
37593;SDS011;23441;50.856;6.076;2023-02-22T03:24:08;93.72;;;13.48;;
37593;SDS011;23441;50.856;6.076;2023-02-22T03:26:42;70.25;;;13.70;;
37593;SDS011;23441;50.856;6.076;2023-02-22T03:29:13;55.47;;;11.82;;
37593;SDS011;23441;50.856;6.076;2023-02-22T03:31:44;87.25;;;12.73;;
37593;SDS011;23441;50.856;6.076;2023-02-22T03:34:18;60.83;;;11.52;;
37593;SDS011;23441;50.856;6.076;2023-02-22T03:37:11;58.95;;;11.90;;
37593;SDS011;23441;50.856;6.076;2023-02-22T03:39:39;54.10;;;11.50;;
37593;SDS011;23441;50.856;6.076;2023-02-22T03:42:08;36.83;;;10.40;;
37593;SDS011;23441;50.856;6.076;2023-02-22T03:44:36;32.33;;;10.20;;
37593;SDS011;23441;50.856;6.076;2023-02-22T03:47:05;27.23;;;10.68;;
37593;SDS011;23441;50.856;6.076;2023-02-22T03:49:36;42.50;;;10.75;;
37593;SDS011;23441;50.856;6.076;2023-02-22T03:52:24;36.35;;;10.30;;
37593;SDS011;23441;50.856;6.076;2023-02-22T03:54:50;17.05;;;10.63;;
37593;SDS011;23441;50.856;6.076;2023-02-22T03:57:26;20.40;;;11.10;;
37593;SDS011;23441;50.856;6.076;2023-02-22T03:59:56;35.88;;;10.18;;
37593;SDS011;23441;50.856;6.076;2023-02-22T04:02:22;75.65;;;11.85;;
37593;SDS011;23441;50.856;6.076;2023-02-22T04:04:48;86.28;;;10.88;;
37593;SDS011;23441;50.856;6.076;2023-02-22T04:07:14;210.40;;;17.45;;
37593;SDS011;23441;50.856;6.076;2023-02-22T04:09:40;337.00;;;18.60;;
37593;SDS011;23441;50.856;6.076;2023-02-22T04:12:06;194.00;;;16.85;;
37593;SDS011;23441;50.856;6.076;2023-02-22T04:14:32;331.75;;;20.20;;
37593;SDS011;23441;50.856;6.076;2023-02-22T04:16:58;259.48;;;15.63;;
37593;SDS011;23441;50.856;6.076;2023-02-22T04:19:24;74.38;;;10.90;;
37593;SDS011;23441;50.856;6.076;2023-02-22T04:21:49;26.65;;;9.25;;
37593;SDS011;23441;50.856;6.076;2023-02-22T04:24:15;16.20;;;8.27;;
37593;SDS011;23441;50.856;6.076;2023-02-22T04:26:41;10.75;;;7.95;;
37593;SDS011;23441;50.856;6.076;2023-02-22T04:29:06;11.57;;;8.00;;
37593;SDS011;23441;50.856;6.076;2023-02-22T04:31:32;15.60;;;9.18;;
37593;SDS011;23441;50.856;6.076;2023-02-22T04:33:58;13.93;;;9.18;;
37593;SDS011;23441;50.856;6.076;2023-02-22T04:36:25;13.85;;;9.88;;
37593;SDS011;23441;50.856;6.076;2023-02-22T04:38:51;13.63;;;9.60;;
37593;SDS011;23441;50.856;6.076;2023-02-22T04:41:17;14.50;;;9.32;;
37593;SDS011;23441;50.856;6.076;2023-02-22T04:43:43;15.38;;;9.88;;
37593;SDS011;23441;50.856;6.076;2023-02-22T04:46:09;15.50;;;9.85;;
37593;SDS011;23441;50.856;6.076;2023-02-22T04:48:35;14.93;;;9.65;;
37593;SDS011;23441;50.856;6.076;2023-02-22T04:51:01;15.70;;;9.63;;
37593;SDS011;23441;50.856;6.076;2023-02-22T04:53:26;12.65;;;9.07;;
37593;SDS011;23441;50.856;6.076;2023-02-22T04:55:52;14.38;;;9.98;;
37593;SDS011;23441;50.856;6.076;2023-02-22T04:58:18;14.80;;;9.82;;
37593;SDS011;23441;50.856;6.076;2023-02-22T05:00:43;14.23;;;8.95;;
37593;SDS011;23441;50.856;6.076;2023-02-22T05:03:09;13.43;;;9.25;;
37593;SDS011;23441;50.856;6.076;2023-02-22T05:05:34;13.88;;;8.70;;
37593;SDS011;23441;50.856;6.076;2023-02-22T05:08:00;13.57;;;9.68;;
37593;SDS011;23441;50.856;6.076;2023-02-22T05:10:26;13.40;;;8.73;;
37593;SDS011;23441;50.856;6.076;2023-02-22T05:12:51;12.82;;;8.25;;
37593;SDS011;23441;50.856;6.076;2023-02-22T05:15:18;12.48;;;8.93;;
37593;SDS011;23441;50.856;6.076;2023-02-22T05:17:44;13.38;;;9.00;;
37593;SDS011;23441;50.856;6.076;2023-02-22T05:20:20;46.85;;;10.85;;
37593;SDS011;23441;50.856;6.076;2023-02-22T05:22:46;12.15;;;9.23;;
37593;SDS011;23441;50.856;6.076;2023-02-22T05:25:11;12.85;;;8.95;;
37593;SDS011;23441;50.856;6.076;2023-02-22T05:27:37;14.90;;;9.70;;
37593;SDS011;23441;50.856;6.076;2023-02-22T05:30:03;14.13;;;9.20;;
37593;SDS011;23441;50.856;6.076;2023-02-22T05:32:29;14.90;;;9.88;;
37593;SDS011;23441;50.856;6.076;2023-02-22T05:34:55;16.13;;;9.45;;
37593;SDS011;23441;50.856;6.076;2023-02-22T05:37:20;18.40;;;10.30;;
37593;SDS011;23441;50.856;6.076;2023-02-22T05:39:46;15.68;;;10.48;;
37593;SDS011;23441;50.856;6.076;2023-02-22T05:42:11;19.17;;;10.90;;
37593;SDS011;23441;50.856;6.076;2023-02-22T05:44:37;16.15;;;10.50;;
37593;SDS011;23441;50.856;6.076;2023-02-22T05:47:02;17.73;;;10.83;;
37593;SDS011;23441;50.856;6.076;2023-02-22T05:49:28;18.15;;;10.90;;
37593;SDS011;23441;50.856;6.076;2023-02-22T05:51:54;17.47;;;11.30;;
37593;SDS011;23441;50.856;6.076;2023-02-22T05:54:23;19.38;;;12.23;;
37593;SDS011;23441;50.856;6.076;2023-02-22T05:56:49;18.10;;;10.17;;
37593;SDS011;23441;50.856;6.076;2023-02-22T05:59:15;20.40;;;12.05;;
37593;SDS011;23441;50.856;6.076;2023-02-22T06:01:40;16.83;;;10.90;;
37593;SDS011;23441;50.856;6.076;2023-02-22T06:04:06;17.03;;;10.10;;
37593;SDS011;23441;50.856;6.076;2023-02-22T06:06:33;17.77;;;10.47;;
37593;SDS011;23441;50.856;6.076;2023-02-22T06:08:58;15.85;;;10.60;;
37593;SDS011;23441;50.856;6.076;2023-02-22T06:11:24;16.57;;;10.13;;
37593;SDS011;23441;50.856;6.076;2023-02-22T06:13:51;23.30;;;12.13;;
37593;SDS011;23441;50.856;6.076;2023-02-22T06:16:18;19.13;;;11.13;;
37593;SDS011;23441;50.856;6.076;2023-02-22T06:18:45;19.03;;;11.13;;
37593;SDS011;23441;50.856;6.076;2023-02-22T06:21:12;19.17;;;11.43;;
37593;SDS011;23441;50.856;6.076;2023-02-22T06:23:37;17.93;;;10.70;;
37593;SDS011;23441;50.856;6.076;2023-02-22T06:26:03;18.17;;;10.70;;
37593;SDS011;23441;50.856;6.076;2023-02-22T06:28:29;17.57;;;10.37;;
37593;SDS011;23441;50.856;6.076;2023-02-22T06:30:54;20.50;;;11.00;;
37593;SDS011;23441;50.856;6.076;2023-02-22T06:33:20;17.55;;;10.75;;
37593;SDS011;23441;50.856;6.076;2023-02-22T06:35:45;21.33;;;11.37;;
37593;SDS011;23441;50.856;6.076;2023-02-22T06:38:11;21.67;;;11.97;;
37593;SDS011;23441;50.856;6.076;2023-02-22T06:40:44;20.43;;;12.73;;
37593;SDS011;23441;50.856;6.076;2023-02-22T06:43:09;23.07;;;12.73;;
37593;SDS011;23441;50.856;6.076;2023-02-22T06:45:35;21.47;;;11.73;;
37593;SDS011;23441;50.856;6.076;2023-02-22T06:48:00;20.10;;;11.47;;
37593;SDS011;23441;50.856;6.076;2023-02-22T06:50:27;17.10;;;10.60;;
37593;SDS011;23441;50.856;6.076;2023-02-22T06:52:54;19.02;;;10.90;;
37593;SDS011;23441;50.856;6.076;2023-02-22T06:55:21;17.67;;;10.80;;
37593;SDS011;23441;50.856;6.076;2023-02-22T06:57:49;22.23;;;10.47;;
37593;SDS011;23441;50.856;6.076;2023-02-22T07:00:16;18.60;;;9.50;;
37593;SDS011;23441;50.856;6.076;2023-02-22T07:02:43;21.60;;;9.90;;
37593;SDS011;23441;50.856;6.076;2023-02-22T07:05:10;17.48;;;9.25;;
37593;SDS011;23441;50.856;6.076;2023-02-22T07:07:37;17.97;;;8.97;;
37593;SDS011;23441;50.856;6.076;2023-02-22T07:10:07;17.23;;;9.27;;
37593;SDS011;23441;50.856;6.076;2023-02-22T07:12:39;21.75;;;9.48;;
37593;SDS011;23441;50.856;6.076;2023-02-22T07:15:05;17.58;;;9.07;;
37593;SDS011;23441;50.856;6.076;2023-02-22T07:17:31;19.80;;;8.73;;
37593;SDS011;23441;50.856;6.076;2023-02-22T07:19:57;19.60;;;9.32;;
37593;SDS011;23441;50.856;6.076;2023-02-22T07:22:22;20.92;;;9.30;;
37593;SDS011;23441;50.856;6.076;2023-02-22T07:24:48;17.63;;;9.15;;
37593;SDS011;23441;50.856;6.076;2023-02-22T07:27:13;14.77;;;8.88;;
37593;SDS011;23441;50.856;6.076;2023-02-22T07:29:41;15.13;;;8.50;;
37593;SDS011;23441;50.856;6.076;2023-02-22T07:32:07;19.23;;;9.02;;
37593;SDS011;23441;50.856;6.076;2023-02-22T07:34:33;16.25;;;8.70;;
37593;SDS011;23441;50.856;6.076;2023-02-22T07:36:59;20.10;;;9.65;;
37593;SDS011;23441;50.856;6.076;2023-02-22T07:39:25;15.30;;;9.27;;
37593;SDS011;23441;50.856;6.076;2023-02-22T07:41:51;17.52;;;9.13;;
37593;SDS011;23441;50.856;6.076;2023-02-22T07:44:17;17.83;;;10.32;;
37593;SDS011;23441;50.856;6.076;2023-02-22T07:46:47;16.58;;;9.90;;
37593;SDS011;23441;50.856;6.076;2023-02-22T07:49:14;19.60;;;10.13;;
37593;SDS011;23441;50.856;6.076;2023-02-22T07:51:40;17.70;;;9.82;;
37593;SDS011;23441;50.856;6.076;2023-02-22T07:54:05;18.35;;;10.82;;
37593;SDS011;23441;50.856;6.076;2023-02-22T07:56:31;22.50;;;10.45;;
37593;SDS011;23441;50.856;6.076;2023-02-22T07:58:57;17.95;;;10.77;;
37593;SDS011;23441;50.856;6.076;2023-02-22T08:01:23;18.02;;;9.60;;
37593;SDS011;23441;50.856;6.076;2023-02-22T08:03:48;13.63;;;8.65;;
37593;SDS011;23441;50.856;6.076;2023-02-22T08:06:14;17.20;;;9.95;;
37593;SDS011;23441;50.856;6.076;2023-02-22T08:08:40;18.70;;;10.93;;
37593;SDS011;23441;50.856;6.076;2023-02-22T08:11:06;16.10;;;10.02;;
37593;SDS011;23441;50.856;6.076;2023-02-22T08:13:32;17.38;;;10.50;;
37593;SDS011;23441;50.856;6.076;2023-02-22T08:15:58;17.23;;;10.00;;
37593;SDS011;23441;50.856;6.076;2023-02-22T08:18:24;17.58;;;10.07;;
37593;SDS011;23441;50.856;6.076;2023-02-22T08:20:50;15.60;;;10.35;;
37593;SDS011;23441;50.856;6.076;2023-02-22T08:23:17;18.45;;;10.23;;
37593;SDS011;23441;50.856;6.076;2023-02-22T08:25:44;15.57;;;10.00;;
37593;SDS011;23441;50.856;6.076;2023-02-22T08:28:11;16.42;;;10.25;;
37593;SDS011;23441;50.856;6.076;2023-02-22T08:30:39;17.23;;;10.05;;
37593;SDS011;23441;50.856;6.076;2023-02-22T08:33:09;17.90;;;10.30;;
37593;SDS011;23441;50.856;6.076;2023-02-22T08:35:38;17.20;;;10.65;;
37593;SDS011;23441;50.856;6.076;2023-02-22T08:38:05;18.42;;;10.68;;
37593;SDS011;23441;50.856;6.076;2023-02-22T08:40:33;18.45;;;11.18;;
37593;SDS011;23441;50.856;6.076;2023-02-22T08:43:00;16.83;;;10.45;;
37593;SDS011;23441;50.856;6.076;2023-02-22T08:45:26;16.80;;;10.45;;
37593;SDS011;23441;50.856;6.076;2023-02-22T08:47:52;18.95;;;11.45;;
37593;SDS011;23441;50.856;6.076;2023-02-22T08:50:20;19.85;;;11.40;;
37593;SDS011;23441;50.856;6.076;2023-02-22T08:52:51;22.58;;;12.23;;
37593;SDS011;23441;50.856;6.076;2023-02-22T08:55:22;23.02;;;12.13;;
37593;SDS011;23441;50.856;6.076;2023-02-22T08:57:52;17.88;;;10.75;;
37593;SDS011;23441;50.856;6.076;2023-02-22T09:00:18;23.20;;;11.73;;
37593;SDS011;23441;50.856;6.076;2023-02-22T09:02:45;19.35;;;11.93;;
37593;SDS011;23441;50.856;6.076;2023-02-22T09:05:10;17.67;;;11.65;;
37593;SDS011;23441;50.856;6.076;2023-02-22T09:07:37;19.60;;;11.25;;
37593;SDS011;23441;50.856;6.076;2023-02-22T09:10:05;18.50;;;11.43;;
37593;SDS011;23441;50.856;6.076;2023-02-22T09:12:31;19.05;;;11.35;;
37593;SDS011;23441;50.856;6.076;2023-02-22T09:14:57;15.55;;;10.35;;
37593;SDS011;23441;50.856;6.076;2023-02-22T09:17:22;19.05;;;11.43;;
37593;SDS011;23441;50.856;6.076;2023-02-22T09:19:48;18.90;;;11.30;;
37593;SDS011;23441;50.856;6.076;2023-02-22T09:22:14;17.17;;;10.68;;
37593;SDS011;23441;50.856;6.076;2023-02-22T09:24:39;16.90;;;11.27;;
37593;SDS011;23441;50.856;6.076;2023-02-22T09:27:07;17.35;;;10.82;;
37593;SDS011;23441;50.856;6.076;2023-02-22T09:29:34;18.77;;;11.43;;
37593;SDS011;23441;50.856;6.076;2023-02-22T09:32:00;19.60;;;11.18;;
37593;SDS011;23441;50.856;6.076;2023-02-22T09:34:27;17.15;;;10.77;;
37593;SDS011;23441;50.856;6.076;2023-02-22T09:36:59;18.45;;;10.52;;
37593;SDS011;23441;50.856;6.076;2023-02-22T09:39:25;16.67;;;10.65;;
37593;SDS011;23441;50.856;6.076;2023-02-22T09:44:58;16.40;;;9.85;;
37593;SDS011;23441;50.856;6.076;2023-02-22T09:47:40;17.10;;;9.70;;
37593;SDS011;23441;50.856;6.076;2023-02-22T09:50:19;15.65;;;9.40;;
37593;SDS011;23441;50.856;6.076;2023-02-22T09:53:04;12.18;;;8.02;;
37593;SDS011;23441;50.856;6.076;2023-02-22T09:55:38;16.42;;;9.15;;
37593;SDS011;23441;50.856;6.076;2023-02-22T09:58:15;16.80;;;8.07;;
37593;SDS011;23441;50.856;6.076;2023-02-22T10:00:41;15.27;;;7.45;;
37593;SDS011;23441;50.856;6.076;2023-02-22T10:03:27;16.95;;;7.15;;
37593;SDS011;23441;50.856;6.076;2023-02-22T10:06:03;14.40;;;6.65;;
37593;SDS011;23441;50.856;6.076;2023-02-22T10:08:36;13.45;;;6.75;;
37593;SDS011;23441;50.856;6.076;2023-02-22T10:14:16;10.82;;;6.50;;
37593;SDS011;23441;50.856;6.076;2023-02-22T10:17:17;9.82;;;6.35;;
37593;SDS011;23441;50.856;6.076;2023-02-22T10:22:43;12.15;;;5.88;;
37593;SDS011;23441;50.856;6.076;2023-02-22T10:25:29;9.48;;;6.10;;
37593;SDS011;23441;50.856;6.076;2023-02-22T10:28:08;12.20;;;5.97;;
37593;SDS011;23441;50.856;6.076;2023-02-22T10:30:49;11.07;;;5.97;;
37593;SDS011;23441;50.856;6.076;2023-02-22T10:33:22;10.27;;;5.97;;
37593;SDS011;23441;50.856;6.076;2023-02-22T10:35:57;12.18;;;6.20;;
37593;SDS011;23441;50.856;6.076;2023-02-22T10:38:32;12.77;;;6.43;;
37593;SDS011;23441;50.856;6.076;2023-02-22T10:41:02;13.35;;;6.63;;
37593;SDS011;23441;50.856;6.076;2023-02-22T10:43:41;14.65;;;7.03;;
37593;SDS011;23441;50.856;6.076;2023-02-22T10:46:09;13.77;;;7.18;;
37593;SDS011;23441;50.856;6.076;2023-02-22T10:48:38;13.57;;;6.65;;
37593;SDS011;23441;50.856;6.076;2023-02-22T10:51:07;11.68;;;7.07;;
37593;SDS011;23441;50.856;6.076;2023-02-22T10:53:34;13.45;;;7.65;;
37593;SDS011;23441;50.856;6.076;2023-02-22T10:56:21;11.27;;;7.25;;
37593;SDS011;23441;50.856;6.076;2023-02-22T11:03:43;18.88;;;7.65;;
37593;SDS011;23441;50.856;6.076;2023-02-22T11:06:19;18.23;;;7.70;;
37593;SDS011;23441;50.856;6.076;2023-02-22T11:08:45;12.90;;;7.57;;
37593;SDS011;23441;50.856;6.076;2023-02-22T11:11:22;14.38;;;8.15;;
37593;SDS011;23441;50.856;6.076;2023-02-22T11:13:53;14.32;;;8.35;;
37593;SDS011;23441;50.856;6.076;2023-02-22T11:16:24;17.90;;;9.45;;
37593;SDS011;23441;50.856;6.076;2023-02-22T11:19:22;14.77;;;9.38;;
37593;SDS011;23441;50.856;6.076;2023-02-22T11:21:51;15.85;;;8.90;;
37593;SDS011;23441;50.856;6.076;2023-02-22T11:24:21;14.82;;;8.85;;
37593;SDS011;23441;50.856;6.076;2023-02-22T11:26:54;12.88;;;8.07;;
37593;SDS011;23441;50.856;6.076;2023-02-22T11:29:26;11.60;;;7.63;;
37593;SDS011;23441;50.856;6.076;2023-02-22T11:32:00;11.52;;;7.70;;
37593;SDS011;23441;50.856;6.076;2023-02-22T11:38:18;12.52;;;7.95;;
37593;SDS011;23441;50.856;6.076;2023-02-22T11:41:11;13.18;;;8.43;;
37593;SDS011;23441;50.856;6.076;2023-02-22T11:43:46;11.13;;;7.63;;
37593;SDS011;23441;50.856;6.076;2023-02-22T11:46:20;17.00;;;8.23;;
37593;SDS011;23441;50.856;6.076;2023-02-22T11:48:55;10.35;;;7.97;;
37593;SDS011;23441;50.856;6.076;2023-02-22T11:53:53;15.02;;;8.50;;
37593;SDS011;23441;50.856;6.076;2023-02-22T11:56:50;12.07;;;8.13;;
37593;SDS011;23441;50.856;6.076;2023-02-22T12:02:04;13.20;;;8.38;;
37593;SDS011;23441;50.856;6.076;2023-02-22T12:19:44;16.42;;;10.27;;
37593;SDS011;23441;50.856;6.076;2023-02-22T12:21:43;14.38;;;9.18;;
37593;SDS011;23441;50.856;6.076;2023-02-22T12:24:17;13.35;;;9.93;;
37593;SDS011;23441;50.856;6.076;2023-02-22T12:26:50;17.23;;;9.38;;
37593;SDS011;23441;50.856;6.076;2023-02-22T12:31:59;14.38;;;9.68;;
37593;SDS011;23441;50.856;6.076;2023-02-22T12:48:41;15.75;;;9.77;;
37593;SDS011;23441;50.856;6.076;2023-02-22T12:54:11;14.15;;;9.20;;
37593;SDS011;23441;50.856;6.076;2023-02-22T12:56:50;13.15;;;9.40;;
37593;SDS011;23441;50.856;6.076;2023-02-22T12:59:31;15.07;;;9.43;;
37593;SDS011;23441;50.856;6.076;2023-02-22T13:04:36;13.23;;;9.68;;
37593;SDS011;23441;50.856;6.076;2023-02-22T13:15:27;15.75;;;9.77;;
37593;SDS011;23441;50.856;6.076;2023-02-22T13:20:46;14.68;;;9.70;;
37593;SDS011;23441;50.856;6.076;2023-02-22T13:28:51;16.88;;;10.15;;
37593;SDS011;23441;50.856;6.076;2023-02-22T13:54:01;20.95;;;10.95;;
37593;SDS011;23441;50.856;6.076;2023-02-22T13:56:45;18.25;;;9.93;;
37593;SDS011;23441;50.856;6.076;2023-02-22T13:59:29;16.70;;;10.27;;
37593;SDS011;23441;50.856;6.076;2023-02-22T14:01:57;15.57;;;9.70;;
37593;SDS011;23441;50.856;6.076;2023-02-22T14:06:54;17.42;;;10.20;;
37593;SDS011;23441;50.856;6.076;2023-02-22T14:17:34;15.60;;;10.40;;
37593;SDS011;23441;50.856;6.076;2023-02-22T14:22:54;17.30;;;10.48;;
37593;SDS011;23441;50.856;6.076;2023-02-22T14:25:30;18.55;;;10.32;;
37593;SDS011;23441;50.856;6.076;2023-02-22T14:27:57;16.02;;;10.27;;
37593;SDS011;23441;50.856;6.076;2023-02-22T14:30:23;17.67;;;9.95;;
37593;SDS011;23441;50.856;6.076;2023-02-22T14:32:51;15.75;;;10.73;;
37593;SDS011;23441;50.856;6.076;2023-02-22T14:35:17;17.58;;;11.02;;
37593;SDS011;23441;50.856;6.076;2023-02-22T14:37:47;21.25;;;11.05;;
37593;SDS011;23441;50.856;6.076;2023-02-22T14:40:24;16.52;;;10.52;;
37593;SDS011;23441;50.856;6.076;2023-02-22T14:45:39;15.88;;;9.35;;
37593;SDS011;23441;50.856;6.076;2023-02-22T14:48:32;16.40;;;10.38;;
37593;SDS011;23441;50.856;6.076;2023-02-22T14:51:25;15.95;;;10.10;;
37593;SDS011;23441;50.856;6.076;2023-02-22T14:56:59;13.05;;;9.90;;
37593;SDS011;23441;50.856;6.076;2023-02-22T15:02:47;14.88;;;10.07;;
37593;SDS011;23441;50.856;6.076;2023-02-22T15:05:15;15.10;;;10.18;;
37593;SDS011;23441;50.856;6.076;2023-02-22T15:07:50;14.10;;;10.35;;
37593;SDS011;23441;50.856;6.076;2023-02-22T15:12:51;15.23;;;10.57;;
37593;SDS011;23441;50.856;6.076;2023-02-22T15:15:19;14.18;;;9.63;;
37593;SDS011;23441;50.856;6.076;2023-02-22T15:17:56;17.52;;;11.50;;
37593;SDS011;23441;50.856;6.076;2023-02-22T15:20:22;17.10;;;11.05;;
37593;SDS011;23441;50.856;6.076;2023-02-22T15:22:49;19.80;;;11.60;;
37593;SDS011;23441;50.856;6.076;2023-02-22T15:25:22;16.13;;;11.10;;
37593;SDS011;23441;50.856;6.076;2023-02-22T15:27:50;19.35;;;10.75;;
37593;SDS011;23441;50.856;6.076;2023-02-22T15:30:18;16.05;;;11.25;;
37593;SDS011;23441;50.856;6.076;2023-02-22T15:32:50;18.13;;;11.63;;
37593;SDS011;23441;50.856;6.076;2023-02-22T15:35:19;20.60;;;11.43;;
37593;SDS011;23441;50.856;6.076;2023-02-22T15:37:56;18.70;;;11.70;;
37593;SDS011;23441;50.856;6.076;2023-02-22T15:40:42;23.45;;;11.95;;
37593;SDS011;23441;50.856;6.076;2023-02-22T15:43:16;19.90;;;11.88;;
37593;SDS011;23441;50.856;6.076;2023-02-22T15:45:48;20.05;;;11.43;;
37593;SDS011;23441;50.856;6.076;2023-02-22T15:48:17;16.95;;;10.98;;
37593;SDS011;23441;50.856;6.076;2023-02-22T15:51:03;20.02;;;12.68;;
37593;SDS011;23441;50.856;6.076;2023-02-22T15:56:04;17.15;;;12.02;;
37593;SDS011;23441;50.856;6.076;2023-02-22T15:58:33;20.35;;;13.10;;
37593;SDS011;23441;50.856;6.076;2023-02-22T16:01:00;20.27;;;13.50;;
37593;SDS011;23441;50.856;6.076;2023-02-22T16:03:36;21.02;;;13.93;;
37593;SDS011;23441;50.856;6.076;2023-02-22T16:06:09;22.73;;;13.32;;
37593;SDS011;23441;50.856;6.076;2023-02-22T16:08:52;19.95;;;12.93;;
37593;SDS011;23441;50.856;6.076;2023-02-22T16:11:23;22.58;;;14.10;;
37593;SDS011;23441;50.856;6.076;2023-02-22T16:13:54;21.55;;;14.07;;
37593;SDS011;23441;50.856;6.076;2023-02-22T16:16:32;22.10;;;13.65;;
37593;SDS011;23441;50.856;6.076;2023-02-22T16:21:54;25.83;;;15.07;;
37593;SDS011;23441;50.856;6.076;2023-02-22T16:24:26;23.02;;;15.27;;
37593;SDS011;23441;50.856;6.076;2023-02-22T16:27:04;23.40;;;14.95;;
37593;SDS011;23441;50.856;6.076;2023-02-22T16:29:39;22.35;;;15.02;;
37593;SDS011;23441;50.856;6.076;2023-02-22T16:32:05;25.70;;;15.40;;
37593;SDS011;23441;50.856;6.076;2023-02-22T16:34:31;23.85;;;16.02;;
37593;SDS011;23441;50.856;6.076;2023-02-22T16:36:57;24.00;;;15.27;;
37593;SDS011;23441;50.856;6.076;2023-02-22T16:41:51;24.15;;;16.60;;
37593;SDS011;23441;50.856;6.076;2023-02-22T16:44:22;22.10;;;16.05;;
37593;SDS011;23441;50.856;6.076;2023-02-22T16:46:51;27.15;;;17.52;;
37593;SDS011;23441;50.856;6.076;2023-02-22T16:49:19;29.13;;;18.17;;
37593;SDS011;23441;50.856;6.076;2023-02-22T16:51:48;32.38;;;18.38;;
37593;SDS011;23441;50.856;6.076;2023-02-22T16:54:41;31.33;;;19.50;;
37593;SDS011;23441;50.856;6.076;2023-02-22T16:57:09;28.10;;;18.33;;
37593;SDS011;23441;50.856;6.076;2023-02-22T16:59:44;29.92;;;20.60;;
37593;SDS011;23441;50.856;6.076;2023-02-22T17:02:14;27.67;;;20.20;;
37593;SDS011;23441;50.856;6.076;2023-02-22T17:04:40;31.27;;;20.83;;
37593;SDS011;23441;50.856;6.076;2023-02-22T17:07:11;32.65;;;20.00;;
37593;SDS011;23441;50.856;6.076;2023-02-22T17:09:37;30.55;;;21.23;;
37593;SDS011;23441;50.856;6.076;2023-02-22T17:12:03;34.03;;;20.85;;
37593;SDS011;23441;50.856;6.076;2023-02-22T17:14:30;33.35;;;21.52;;
37593;SDS011;23441;50.856;6.076;2023-02-22T17:16:57;33.30;;;23.10;;
37593;SDS011;23441;50.856;6.076;2023-02-22T17:19:24;33.00;;;23.55;;
37593;SDS011;23441;50.856;6.076;2023-02-22T17:21:50;33.75;;;24.23;;
37593;SDS011;23441;50.856;6.076;2023-02-22T17:24:16;38.63;;;26.20;;